createdAt,value
2022-07-29T00:01:59.450Z,101034.56
2022-07-29T00:07:03.007Z,101035.98
2022-07-29T00:12:06.305Z,101031.48
2022-07-29T00:17:12.650Z,101031.38
2022-07-29T00:22:22.314Z,101036.27
2022-07-29T00:27:25.111Z,101030.95
2022-07-29T00:32:27.910Z,101031.38
2022-07-29T00:37:30.636Z,101030.83
2022-07-29T00:42:43.636Z,101034.73
2022-07-29T00:47:46.695Z,101032.04
2022-07-29T00:52:49.652Z,101033.90
2022-07-29T00:57:54.022Z,101032.95
2022-07-29T01:02:57.055Z,101034.77
2022-07-29T01:08:00.848Z,101034.89
2022-07-29T01:13:05.890Z,101038.16
2022-07-29T01:18:13.853Z,101042.91
2022-07-29T01:23:42.358Z,101044.66
2022-07-29T01:29:06.695Z,101047.66
2022-07-29T01:34:19.420Z,101041.22
2022-07-29T01:39:31.217Z,101042.11
2022-07-29T01:44:42.715Z,101043.91
2022-07-29T01:49:52.180Z,101039.55
2022-07-29T01:54:59.558Z,101037.56
2022-07-29T02:00:03.135Z,101038.77
2022-07-29T02:05:09.112Z,101045.77
2022-07-29T02:10:13.847Z,101043.84
2022-07-29T02:15:17.946Z,101048.02
2022-07-29T02:20:21.445Z,101045.27
2022-07-29T02:25:25.736Z,101049.27
2022-07-29T02:30:42.846Z,101050.04
2022-07-29T02:35:47.588Z,101046.64
2022-07-29T02:40:53.151Z,101054.80
2022-07-29T02:45:57.670Z,101054.70
2022-07-29T02:51:08.172Z,101053.46
2022-07-29T02:56:17.587Z,101057.71
2022-07-29T03:01:31.389Z,101057.08
2022-07-29T03:06:38.750Z,101058.83
2022-07-29T03:11:49.386Z,101058.77
2022-07-29T03:16:54.178Z,101061.59
2022-07-29T03:21:59.164Z,101054.23
2022-07-29T03:27:03.160Z,101057.85
2022-07-29T03:32:08.482Z,101058.33
2022-07-29T03:37:11.638Z,101053.67
2022-07-29T03:42:17.429Z,101055.39
2022-07-29T03:47:36.856Z,101055.02
2022-07-29T03:52:47.886Z,101054.11
2022-07-29T03:57:51.663Z,101054.77
2022-07-29T04:02:54.382Z,101055.58
2022-07-29T04:07:57.388Z,101051.46
2022-07-29T04:13:00.683Z,101054.38
2022-07-29T04:18:03.480Z,101055.44
2022-07-29T04:23:06.230Z,101054.40
2022-07-29T04:28:10.355Z,101059.52
2022-07-29T04:33:13.124Z,101067.55
2022-07-29T04:38:17.201Z,101072.42
2022-07-29T04:43:22.476Z,101071.84
2022-07-29T04:48:28.648Z,101081.72
2022-07-29T04:53:31.769Z,101077.27
2022-07-29T04:58:38.385Z,101072.23
2022-07-29T05:03:41.486Z,101072.16
2022-07-29T05:08:44.244Z,101067.63
2022-07-29T05:13:47.211Z,101074.48
2022-07-29T05:18:50.078Z,101070.58
2022-07-29T05:23:52.767Z,101069.83
2022-07-29T05:28:55.975Z,101066.93
2022-07-29T05:33:58.679Z,101064.70
2022-07-29T05:39:01.722Z,101060.57
2022-07-29T05:44:04.490Z,101063.63
2022-07-29T05:49:08.460Z,101063.47
2022-07-29T05:54:11.936Z,101064.70
2022-07-29T05:59:17.816Z,101065.25
2022-07-29T06:04:21.443Z,101058.40
2022-07-29T06:09:24.653Z,101049.13
2022-07-29T06:14:27.832Z,101055.81
2022-07-29T06:19:30.566Z,101057.92
2022-07-29T06:24:33.590Z,101059.06
2022-07-29T06:29:36.497Z,101058.09
2022-07-29T06:34:39.274Z,101057.15
2022-07-29T06:39:43.456Z,101062.59
2022-07-29T06:44:46.230Z,101059.74
2022-07-29T06:49:48.968Z,101053.29
2022-07-29T06:54:51.710Z,101054.98
2022-07-29T06:59:54.470Z,101048.81
2022-07-29T07:04:57.178Z,101045.70
2022-07-29T07:09:59.871Z,101044.27
2022-07-29T07:15:02.896Z,101046.53
2022-07-29T07:20:07.472Z,101043.81
2022-07-29T07:25:12.791Z,101038.05
2022-07-29T07:30:15.811Z,101038.48
2022-07-29T07:35:18.938Z,101046.14
2022-07-29T07:40:21.634Z,101043.67
2022-07-29T07:45:24.945Z,101046.45
2022-07-29T07:50:28.000Z,101043.09
2022-07-29T07:55:47.479Z,101038.54
2022-07-29T08:00:53.700Z,101049.91
2022-07-29T08:05:56.843Z,101053.23
2022-07-29T08:11:02.258Z,101052.52
2022-07-29T08:16:16.621Z,101054.16
2022-07-29T08:21:19.733Z,101046.25
2022-07-29T08:26:23.724Z,101046.14
2022-07-29T08:31:26.480Z,101042.48
2022-07-29T08:36:29.320Z,101047.77
2022-07-29T08:41:32.528Z,101046.81
2022-07-29T08:46:39.499Z,101048.48
2022-07-29T08:51:49.357Z,101046.59
2022-07-29T08:56:52.878Z,101042.67
2022-07-29T09:02:01.286Z,101043.45
2022-07-29T09:07:07.014Z,101034.64
2022-07-29T09:12:12.503Z,101034.30
2022-07-29T09:17:17.876Z,101036.91
2022-07-29T09:22:31.573Z,101036.40
2022-07-29T09:27:35.300Z,101030.92
2022-07-29T09:32:59.325Z,101031.89
2022-07-29T09:38:15.233Z,101028.30
2022-07-29T09:43:17.986Z,101026.73
2022-07-29T09:48:26.354Z,101029.76
2022-07-29T09:53:38.186Z,101021.23
2022-07-29T09:58:41.073Z,101022.92
2022-07-29T10:03:54.183Z,101019.73
2022-07-29T10:09:09.508Z,101014.27
2022-07-29T10:14:12.114Z,101011.25
2022-07-29T10:19:15.287Z,101014.02
2022-07-29T10:24:18.728Z,101010.79
2022-07-29T10:29:21.537Z,101016.20
2022-07-29T10:34:37.748Z,101013.17
2022-07-29T10:40:25.579Z,101008.21
2022-07-29T10:45:30.857Z,101007.33
2022-07-29T10:51:13.394Z,101006.40
2022-07-29T10:56:25.283Z,101002.64
2022-07-29T11:01:37.664Z,100996.00
2022-07-29T11:07:04.045Z,100994.10
2022-07-29T11:12:25.376Z,100993.15
2022-07-29T11:17:37.519Z,100990.06
2022-07-29T11:22:50.150Z,100984.67
2022-07-29T11:27:55.829Z,100974.02
2022-07-29T11:32:58.452Z,100966.90
2022-07-29T11:38:23.535Z,100966.72
2022-07-29T11:43:54.429Z,100959.33
2022-07-29T11:48:57.574Z,100954.04
2022-07-29T11:54:04.464Z,100948.54
2022-07-29T11:59:10.285Z,100948.52
2022-07-29T12:04:17.944Z,100947.13
2022-07-29T12:09:27.838Z,100938.63
2022-07-29T12:14:46.658Z,100939.04
2022-07-29T12:19:49.334Z,100940.45
2022-07-29T12:25:02.206Z,100940.32
2022-07-29T12:30:18.090Z,100941.80
2022-07-29T12:35:22.237Z,100945.03
2022-07-29T12:40:25.165Z,100945.70
2022-07-29T12:45:31.966Z,100942.05
2022-07-29T12:50:34.933Z,100939.07
2022-07-29T12:55:50.044Z,100934.25
2022-07-29T13:01:01.258Z,100931.30
2022-07-29T13:06:04.108Z,100930.11
2022-07-29T13:11:06.996Z,100929.98
2022-07-29T13:16:09.795Z,100925.48
2022-07-29T13:21:14.542Z,100926.13
2022-07-29T13:26:20.671Z,100925.70
2022-07-29T13:31:24.013Z,100924.30
2022-07-29T13:36:27.897Z,100920.13
2022-07-29T13:41:30.875Z,100915.31
2022-07-29T13:46:33.549Z,100918.54
2022-07-29T13:51:36.282Z,100905.98
2022-07-29T13:56:38.979Z,100904.48
2022-07-29T14:01:43.256Z,100899.06
2022-07-29T14:06:46.222Z,100892.98
2022-07-29T14:11:52.043Z,100901.95
2022-07-29T14:16:54.780Z,100900.32
2022-07-29T14:21:57.887Z,100898.59
2022-07-29T14:27:01.094Z,100893.13
2022-07-29T14:32:08.543Z,100895.02
2022-07-29T14:37:16.026Z,100890.55
2022-07-29T14:42:18.954Z,100892.51
2022-07-29T14:47:22.896Z,100885.52
2022-07-29T14:52:25.571Z,100879.20
2022-07-29T14:57:28.261Z,100879.47
2022-07-29T15:02:52.063Z,100877.59
2022-07-29T15:07:54.679Z,100873.29
2022-07-29T15:12:57.652Z,100870.41
2022-07-29T15:18:00.423Z,100867.69
2022-07-29T15:23:03.182Z,100868.54
2022-07-29T15:28:09.224Z,100870.51
2022-07-29T15:33:12.056Z,100867.44
2022-07-29T15:38:14.763Z,100865.63
2022-07-29T15:43:17.610Z,100862.09
2022-07-29T15:48:20.315Z,100858.24
2022-07-29T15:53:23.233Z,100857.45
2022-07-29T15:58:26.019Z,100850.67
2022-07-29T16:03:29.035Z,100844.41
2022-07-29T16:08:31.804Z,100833.20
2022-07-29T16:13:34.571Z,100830.92
2022-07-29T16:18:37.514Z,100823.71
2022-07-29T16:23:40.829Z,100814.89
2022-07-29T16:28:43.866Z,100815.29
2022-07-29T16:33:55.622Z,100811.40
2022-07-29T16:38:59.789Z,100811.24
2022-07-29T16:44:03.461Z,100811.92
2022-07-29T16:49:06.367Z,100811.95
2022-07-29T16:54:10.804Z,100816.43
2022-07-29T16:59:13.604Z,100815.29
2022-07-29T17:04:16.398Z,100814.77
2022-07-29T17:09:19.519Z,100818.95
2022-07-29T17:14:26.919Z,100818.05
2022-07-29T17:19:32.394Z,100819.54
2022-07-29T17:24:35.356Z,100812.23
2022-07-29T17:29:39.125Z,100815.15
2022-07-29T17:34:43.247Z,100816.65
2022-07-29T17:39:46.210Z,100822.77
2022-07-29T17:44:48.916Z,100821.11
2022-07-29T17:49:51.732Z,100816.39
2022-07-29T17:54:54.407Z,100822.88
2022-07-29T17:59:57.170Z,100826.00
2022-07-29T18:04:59.940Z,100831.92
2022-07-29T18:10:03.103Z,100837.20
2022-07-29T18:15:06.681Z,100835.95
2022-07-29T18:20:10.623Z,100840.98
2022-07-29T18:25:13.357Z,100843.81
2022-07-29T18:30:16.429Z,100844.98
2022-07-29T18:35:19.301Z,100846.33
2022-07-29T18:40:25.872Z,100838.72
2022-07-29T18:45:29.045Z,100844.17
2022-07-29T18:50:31.952Z,100844.11
2022-07-29T18:55:34.655Z,100843.48
2022-07-29T19:00:37.472Z,100841.30
2022-07-29T19:05:40.158Z,100841.17
2022-07-29T19:10:42.972Z,100851.91
2022-07-29T19:15:46.434Z,100849.47
2022-07-29T19:20:49.349Z,100853.72
2022-07-29T19:25:53.560Z,100858.74
2022-07-29T19:30:56.685Z,100863.60
2022-07-29T19:35:59.504Z,100864.48
2022-07-29T19:41:02.262Z,100859.27
2022-07-29T19:46:05.115Z,100857.62
2022-07-29T19:51:07.939Z,100858.66
2022-07-29T19:56:10.867Z,100860.48
2022-07-29T20:01:13.615Z,100859.50
2022-07-29T20:06:16.336Z,100861.09
2022-07-29T20:11:19.144Z,100861.37
2022-07-29T20:16:22.797Z,100860.98
2022-07-29T20:21:28.231Z,100864.63
2022-07-29T20:26:31.497Z,100867.23
2022-07-29T20:31:34.278Z,100866.97
2022-07-29T20:36:37.770Z,100868.84
2022-07-29T20:41:40.677Z,100872.58
2022-07-29T20:46:43.406Z,100865.33
2022-07-29T20:51:46.101Z,100868.80
2022-07-29T20:56:48.779Z,100876.73
2022-07-29T21:01:51.851Z,100874.50
2022-07-29T21:06:54.586Z,100881.15
2022-07-29T21:11:59.345Z,100879.66
2022-07-29T21:17:04.615Z,100874.75
2022-07-29T21:22:07.432Z,100879.10
2022-07-29T21:27:28.958Z,100879.86
2022-07-29T21:32:31.822Z,100877.51
2022-07-29T21:37:34.568Z,100871.25
2022-07-29T21:42:37.242Z,100871.41
2022-07-29T21:47:40.244Z,100864.25
2022-07-29T21:52:42.938Z,100860.91
2022-07-29T21:57:45.884Z,100859.19
2022-07-29T22:02:48.749Z,100860.27
2022-07-29T22:07:55.891Z,100864.91
2022-07-29T22:13:01.543Z,100864.44
2022-07-29T22:18:04.739Z,100871.52
2022-07-29T22:23:07.428Z,100871.65
2022-07-29T22:28:10.147Z,100870.54
2022-07-29T22:33:17.624Z,100867.97
2022-07-29T22:38:20.748Z,100870.11
2022-07-29T22:43:23.472Z,100861.02
2022-07-29T22:48:26.142Z,100853.04
2022-07-29T22:53:28.898Z,100849.25
2022-07-29T22:58:31.927Z,100847.45
2022-07-29T23:03:34.664Z,100845.45
2022-07-29T23:08:37.396Z,100843.29
2022-07-29T23:13:40.308Z,100837.30
2022-07-29T23:18:43.177Z,100830.75
2022-07-29T23:23:45.848Z,100836.94
2022-07-29T23:28:48.628Z,100834.85
2022-07-29T23:33:51.331Z,100829.84
2022-07-29T23:38:55.431Z,100833.42
2022-07-29T23:43:58.171Z,100832.27
2022-07-29T23:49:00.965Z,100829.41
2022-07-29T23:54:03.877Z,100830.55
2022-07-29T23:59:06.768Z,100829.96
